sensor_id;sensor_type;location;lat;lon;timestamp;P1;durP1;ratioP1;P2;durP2;ratioP2
4758;SDS011;2393;50.560;12.636;2024-03-02T00:05:28;42.00;;;15.50;;
4758;SDS011;2393;50.560;12.636;2024-03-02T00:07:57;33.40;;;13.33;;
4758;SDS011;2393;50.560;12.636;2024-03-02T00:10:27;36.47;;;14.10;;
4758;SDS011;2393;50.560;12.636;2024-03-02T00:13:03;32.20;;;13.57;;
4758;SDS011;2393;50.560;12.636;2024-03-02T00:15:41;29.10;;;12.70;;
4758;SDS011;2393;50.560;12.636;2024-03-02T00:18:14;26.30;;;12.27;;
4758;SDS011;2393;50.560;12.636;2024-03-02T00:20:47;27.97;;;12.40;;
4758;SDS011;2393;50.560;12.636;2024-03-02T00:23:16;27.80;;;11.63;;
4758;SDS011;2393;50.560;12.636;2024-03-02T00:25:47;35.63;;;12.40;;
4758;SDS011;2393;50.560;12.636;2024-03-02T00:28:16;30.47;;;13.60;;
4758;SDS011;2393;50.560;12.636;2024-03-02T00:31:02;28.57;;;13.70;;
4758;SDS011;2393;50.560;12.636;2024-03-02T00:33:32;32.27;;;12.37;;
4758;SDS011;2393;50.560;12.636;2024-03-02T00:36:04;29.57;;;13.60;;
4758;SDS011;2393;50.560;12.636;2024-03-02T00:38:33;35.93;;;12.70;;
4758;SDS011;2393;50.560;12.636;2024-03-02T00:41:04;36.93;;;14.93;;
4758;SDS011;2393;50.560;12.636;2024-03-02T00:43:42;37.20;;;14.43;;
4758;SDS011;2393;50.560;12.636;2024-03-02T00:46:15;28.70;;;10.93;;
4758;SDS011;2393;50.560;12.636;2024-03-02T00:48:50;38.03;;;13.57;;
4758;SDS011;2393;50.560;12.636;2024-03-02T00:51:23;43.10;;;16.67;;
4758;SDS011;2393;50.560;12.636;2024-03-02T00:53:52;35.87;;;15.90;;
4758;SDS011;2393;50.560;12.636;2024-03-02T00:56:23;37.60;;;14.33;;
4758;SDS011;2393;50.560;12.636;2024-03-02T00:58:53;32.60;;;14.13;;
4758;SDS011;2393;50.560;12.636;2024-03-02T01:01:21;32.33;;;14.20;;
4758;SDS011;2393;50.560;12.636;2024-03-02T01:03:50;33.87;;;14.23;;
4758;SDS011;2393;50.560;12.636;2024-03-02T01:06:19;31.33;;;13.43;;
4758;SDS011;2393;50.560;12.636;2024-03-02T01:08:50;31.53;;;13.87;;
4758;SDS011;2393;50.560;12.636;2024-03-02T01:11:19;48.77;;;16.20;;
4758;SDS011;2393;50.560;12.636;2024-03-02T01:13:49;28.77;;;13.20;;
4758;SDS011;2393;50.560;12.636;2024-03-02T01:16:18;32.43;;;14.10;;
4758;SDS011;2393;50.560;12.636;2024-03-02T01:18:48;27.03;;;12.50;;
4758;SDS011;2393;50.560;12.636;2024-03-02T01:21:17;33.50;;;13.27;;
4758;SDS011;2393;50.560;12.636;2024-03-02T01:23:45;24.07;;;12.03;;
4758;SDS011;2393;50.560;12.636;2024-03-02T01:26:16;24.40;;;11.63;;
4758;SDS011;2393;50.560;12.636;2024-03-02T01:28:44;28.27;;;11.70;;
4758;SDS011;2393;50.560;12.636;2024-03-02T01:31:13;34.77;;;14.60;;
4758;SDS011;2393;50.560;12.636;2024-03-02T01:33:41;27.37;;;12.50;;
4758;SDS011;2393;50.560;12.636;2024-03-02T01:36:09;50.40;;;13.03;;
4758;SDS011;2393;50.560;12.636;2024-03-02T01:38:39;31.40;;;12.30;;
4758;SDS011;2393;50.560;12.636;2024-03-02T01:41:07;29.60;;;13.20;;
4758;SDS011;2393;50.560;12.636;2024-03-02T01:43:37;23.20;;;12.80;;
4758;SDS011;2393;50.560;12.636;2024-03-02T01:46:08;24.90;;;11.33;;
4758;SDS011;2393;50.560;12.636;2024-03-02T01:48:36;32.40;;;13.37;;
4758;SDS011;2393;50.560;12.636;2024-03-02T01:51:06;33.77;;;14.60;;
4758;SDS011;2393;50.560;12.636;2024-03-02T01:53:38;30.63;;;13.33;;
4758;SDS011;2393;50.560;12.636;2024-03-02T01:56:07;29.50;;;12.00;;
4758;SDS011;2393;50.560;12.636;2024-03-02T01:58:36;25.90;;;13.00;;
4758;SDS011;2393;50.560;12.636;2024-03-02T02:01:05;31.33;;;13.77;;
4758;SDS011;2393;50.560;12.636;2024-03-02T02:03:34;40.97;;;15.60;;
4758;SDS011;2393;50.560;12.636;2024-03-02T02:06:03;31.87;;;14.43;;
4758;SDS011;2393;50.560;12.636;2024-03-02T02:08:32;29.47;;;14.03;;
4758;SDS011;2393;50.560;12.636;2024-03-02T02:11:00;33.27;;;12.50;;
4758;SDS011;2393;50.560;12.636;2024-03-02T02:13:29;38.77;;;14.03;;
4758;SDS011;2393;50.560;12.636;2024-03-02T02:16:05;36.43;;;12.70;;
4758;SDS011;2393;50.560;12.636;2024-03-02T02:18:34;26.97;;;13.10;;
4758;SDS011;2393;50.560;12.636;2024-03-02T02:21:03;32.30;;;11.97;;
4758;SDS011;2393;50.560;12.636;2024-03-02T02:23:33;28.40;;;11.43;;
4758;SDS011;2393;50.560;12.636;2024-03-02T02:26:01;27.70;;;10.23;;
4758;SDS011;2393;50.560;12.636;2024-03-02T02:28:30;28.40;;;11.83;;
4758;SDS011;2393;50.560;12.636;2024-03-02T02:30:59;23.87;;;10.23;;
4758;SDS011;2393;50.560;12.636;2024-03-02T02:33:27;29.63;;;11.10;;
4758;SDS011;2393;50.560;12.636;2024-03-02T02:35:56;30.33;;;11.17;;
4758;SDS011;2393;50.560;12.636;2024-03-02T02:38:25;25.33;;;10.57;;
4758;SDS011;2393;50.560;12.636;2024-03-02T02:40:54;22.07;;;10.70;;
4758;SDS011;2393;50.560;12.636;2024-03-02T02:43:23;26.00;;;11.63;;
4758;SDS011;2393;50.560;12.636;2024-03-02T02:45:51;22.63;;;10.40;;
4758;SDS011;2393;50.560;12.636;2024-03-02T02:48:20;34.83;;;11.70;;
4758;SDS011;2393;50.560;12.636;2024-03-02T02:50:48;25.90;;;10.60;;
4758;SDS011;2393;50.560;12.636;2024-03-02T02:53:16;18.90;;;10.73;;
4758;SDS011;2393;50.560;12.636;2024-03-02T02:55:45;30.43;;;11.77;;
4758;SDS011;2393;50.560;12.636;2024-03-02T02:58:15;23.23;;;10.63;;
4758;SDS011;2393;50.560;12.636;2024-03-02T03:00:43;22.70;;;10.00;;
4758;SDS011;2393;50.560;12.636;2024-03-02T03:03:12;19.87;;;9.47;;
4758;SDS011;2393;50.560;12.636;2024-03-02T03:05:41;24.23;;;11.10;;
4758;SDS011;2393;50.560;12.636;2024-03-02T03:08:09;22.00;;;10.43;;
4758;SDS011;2393;50.560;12.636;2024-03-02T03:10:38;19.87;;;9.93;;
4758;SDS011;2393;50.560;12.636;2024-03-02T03:13:06;21.10;;;10.37;;
4758;SDS011;2393;50.560;12.636;2024-03-02T03:15:37;27.50;;;11.67;;
4758;SDS011;2393;50.560;12.636;2024-03-02T03:18:05;26.33;;;11.47;;
4758;SDS011;2393;50.560;12.636;2024-03-02T03:20:35;25.07;;;11.53;;
4758;SDS011;2393;50.560;12.636;2024-03-02T03:23:04;23.10;;;10.97;;
4758;SDS011;2393;50.560;12.636;2024-03-02T03:25:32;23.70;;;10.73;;
4758;SDS011;2393;50.560;12.636;2024-03-02T03:28:01;30.27;;;12.13;;
4758;SDS011;2393;50.560;12.636;2024-03-02T03:30:29;29.13;;;12.33;;
4758;SDS011;2393;50.560;12.636;2024-03-02T03:32:59;22.27;;;11.17;;
4758;SDS011;2393;50.560;12.636;2024-03-02T03:35:28;17.97;;;9.50;;
4758;SDS011;2393;50.560;12.636;2024-03-02T03:37:56;20.43;;;10.77;;
4758;SDS011;2393;50.560;12.636;2024-03-02T03:40:25;19.80;;;9.87;;
4758;SDS011;2393;50.560;12.636;2024-03-02T03:42:53;26.03;;;11.83;;
4758;SDS011;2393;50.560;12.636;2024-03-02T03:45:23;22.67;;;11.07;;
4758;SDS011;2393;50.560;12.636;2024-03-02T03:47:53;22.87;;;12.23;;
4758;SDS011;2393;50.560;12.636;2024-03-02T03:50:23;27.17;;;10.90;;
4758;SDS011;2393;50.560;12.636;2024-03-02T03:52:52;21.00;;;11.10;;
4758;SDS011;2393;50.560;12.636;2024-03-02T03:55:20;28.70;;;10.60;;
4758;SDS011;2393;50.560;12.636;2024-03-02T03:57:49;25.03;;;12.40;;
4758;SDS011;2393;50.560;12.636;2024-03-02T04:00:17;25.80;;;10.80;;
4758;SDS011;2393;50.560;12.636;2024-03-02T04:02:46;22.83;;;10.63;;
4758;SDS011;2393;50.560;12.636;2024-03-02T04:05:14;25.43;;;10.73;;
4758;SDS011;2393;50.560;12.636;2024-03-02T04:07:44;24.30;;;11.07;;
4758;SDS011;2393;50.560;12.636;2024-03-02T04:10:12;24.73;;;10.40;;
4758;SDS011;2393;50.560;12.636;2024-03-02T04:12:41;19.63;;;10.00;;
4758;SDS011;2393;50.560;12.636;2024-03-02T04:15:10;29.97;;;12.40;;
4758;SDS011;2393;50.560;12.636;2024-03-02T04:17:38;28.40;;;10.90;;
4758;SDS011;2393;50.560;12.636;2024-03-02T04:20:07;26.33;;;11.23;;
4758;SDS011;2393;50.560;12.636;2024-03-02T04:22:35;27.87;;;11.23;;
4758;SDS011;2393;50.560;12.636;2024-03-02T04:25:05;30.10;;;11.90;;
4758;SDS011;2393;50.560;12.636;2024-03-02T04:27:35;25.70;;;10.47;;
4758;SDS011;2393;50.560;12.636;2024-03-02T04:30:04;25.10;;;12.33;;
4758;SDS011;2393;50.560;12.636;2024-03-02T04:32:33;34.63;;;12.40;;
4758;SDS011;2393;50.560;12.636;2024-03-02T04:35:03;28.43;;;12.83;;
4758;SDS011;2393;50.560;12.636;2024-03-02T04:37:34;38.57;;;13.90;;
4758;SDS011;2393;50.560;12.636;2024-03-02T04:40:02;35.17;;;13.20;;
4758;SDS011;2393;50.560;12.636;2024-03-02T04:42:36;27.73;;;10.17;;
4758;SDS011;2393;50.560;12.636;2024-03-02T04:45:05;23.17;;;9.80;;
4758;SDS011;2393;50.560;12.636;2024-03-02T04:47:34;27.27;;;13.50;;
4758;SDS011;2393;50.560;12.636;2024-03-02T04:50:03;33.33;;;11.70;;
4758;SDS011;2393;50.560;12.636;2024-03-02T04:52:39;25.00;;;11.30;;
4758;SDS011;2393;50.560;12.636;2024-03-02T04:55:07;28.00;;;12.23;;
4758;SDS011;2393;50.560;12.636;2024-03-02T04:57:57;26.13;;;11.80;;
4758;SDS011;2393;50.560;12.636;2024-03-02T05:00:26;24.43;;;11.03;;
4758;SDS011;2393;50.560;12.636;2024-03-02T05:02:54;21.93;;;10.33;;
4758;SDS011;2393;50.560;12.636;2024-03-02T05:05:23;24.83;;;9.77;;
4758;SDS011;2393;50.560;12.636;2024-03-02T05:07:51;17.20;;;9.07;;
4758;SDS011;2393;50.560;12.636;2024-03-02T05:10:19;19.93;;;9.27;;
4758;SDS011;2393;50.560;12.636;2024-03-02T05:12:48;21.23;;;10.00;;
4758;SDS011;2393;50.560;12.636;2024-03-02T05:15:27;16.00;;;8.77;;
4758;SDS011;2393;50.560;12.636;2024-03-02T05:17:56;19.00;;;10.30;;
4758;SDS011;2393;50.560;12.636;2024-03-02T05:20:26;22.90;;;10.70;;
4758;SDS011;2393;50.560;12.636;2024-03-02T05:22:55;23.00;;;9.23;;
4758;SDS011;2393;50.560;12.636;2024-03-02T05:25:23;21.43;;;9.60;;
4758;SDS011;2393;50.560;12.636;2024-03-02T05:27:52;24.03;;;11.30;;
4758;SDS011;2393;50.560;12.636;2024-03-02T05:30:20;23.97;;;9.43;;
4758;SDS011;2393;50.560;12.636;2024-03-02T05:32:50;20.40;;;10.20;;
4758;SDS011;2393;50.560;12.636;2024-03-02T05:35:18;18.13;;;9.60;;
4758;SDS011;2393;50.560;12.636;2024-03-02T05:37:47;23.17;;;10.93;;
4758;SDS011;2393;50.560;12.636;2024-03-02T05:40:15;28.33;;;11.20;;
4758;SDS011;2393;50.560;12.636;2024-03-02T05:42:46;20.17;;;10.30;;
4758;SDS011;2393;50.560;12.636;2024-03-02T05:45:15;26.63;;;9.20;;
4758;SDS011;2393;50.560;12.636;2024-03-02T05:47:43;21.33;;;8.50;;
4758;SDS011;2393;50.560;12.636;2024-03-02T05:50:13;22.23;;;10.50;;
4758;SDS011;2393;50.560;12.636;2024-03-02T05:52:42;21.73;;;9.57;;
4758;SDS011;2393;50.560;12.636;2024-03-02T05:55:11;25.17;;;11.20;;
4758;SDS011;2393;50.560;12.636;2024-03-02T05:57:40;28.17;;;10.50;;
4758;SDS011;2393;50.560;12.636;2024-03-02T06:00:22;26.90;;;9.77;;
4758;SDS011;2393;50.560;12.636;2024-03-02T06:02:50;25.13;;;10.73;;
4758;SDS011;2393;50.560;12.636;2024-03-02T06:05:20;27.53;;;10.47;;
4758;SDS011;2393;50.560;12.636;2024-03-02T06:07:49;24.47;;;10.10;;
4758;SDS011;2393;50.560;12.636;2024-03-02T06:10:18;34.43;;;10.77;;
4758;SDS011;2393;50.560;12.636;2024-03-02T06:12:47;20.73;;;10.50;;
4758;SDS011;2393;50.560;12.636;2024-03-02T06:15:16;33.10;;;10.93;;
4758;SDS011;2393;50.560;12.636;2024-03-02T06:17:44;23.33;;;10.50;;
4758;SDS011;2393;50.560;12.636;2024-03-02T06:20:13;24.30;;;10.90;;
4758;SDS011;2393;50.560;12.636;2024-03-02T06:22:43;32.40;;;13.60;;
4758;SDS011;2393;50.560;12.636;2024-03-02T06:25:11;32.83;;;13.83;;
4758;SDS011;2393;50.560;12.636;2024-03-02T06:27:40;29.77;;;13.03;;
4758;SDS011;2393;50.560;12.636;2024-03-02T06:30:08;29.30;;;10.40;;
4758;SDS011;2393;50.560;12.636;2024-03-02T06:32:38;25.77;;;11.40;;
4758;SDS011;2393;50.560;12.636;2024-03-02T06:35:06;38.47;;;15.57;;
4758;SDS011;2393;50.560;12.636;2024-03-02T06:37:38;25.40;;;11.87;;
4758;SDS011;2393;50.560;12.636;2024-03-02T06:40:09;37.50;;;14.30;;
4758;SDS011;2393;50.560;12.636;2024-03-02T06:42:37;36.50;;;14.43;;
4758;SDS011;2393;50.560;12.636;2024-03-02T06:45:06;38.50;;;16.00;;
4758;SDS011;2393;50.560;12.636;2024-03-02T06:47:34;30.33;;;14.50;;
4758;SDS011;2393;50.560;12.636;2024-03-02T06:50:04;38.13;;;13.93;;
4758;SDS011;2393;50.560;12.636;2024-03-02T06:52:34;36.07;;;14.13;;
4758;SDS011;2393;50.560;12.636;2024-03-02T06:55:02;29.53;;;13.23;;
4758;SDS011;2393;50.560;12.636;2024-03-02T06:57:33;43.73;;;17.30;;
4758;SDS011;2393;50.560;12.636;2024-03-02T07:00:02;48.23;;;18.50;;
4758;SDS011;2393;50.560;12.636;2024-03-02T07:02:31;45.13;;;16.37;;
4758;SDS011;2393;50.560;12.636;2024-03-02T07:05:00;45.67;;;17.33;;
4758;SDS011;2393;50.560;12.636;2024-03-02T07:07:28;33.23;;;14.07;;
4758;SDS011;2393;50.560;12.636;2024-03-02T07:09:57;36.50;;;14.80;;
4758;SDS011;2393;50.560;12.636;2024-03-02T07:12:25;40.47;;;15.70;;
4758;SDS011;2393;50.560;12.636;2024-03-02T07:14:56;38.70;;;14.07;;
4758;SDS011;2393;50.560;12.636;2024-03-02T07:17:52;38.10;;;15.20;;
4758;SDS011;2393;50.560;12.636;2024-03-02T07:20:20;32.83;;;16.03;;
4758;SDS011;2393;50.560;12.636;2024-03-02T07:22:48;27.63;;;13.13;;
4758;SDS011;2393;50.560;12.636;2024-03-02T07:25:17;40.00;;;17.63;;
4758;SDS011;2393;50.560;12.636;2024-03-02T07:27:48;43.13;;;21.77;;
4758;SDS011;2393;50.560;12.636;2024-03-02T07:30:20;30.27;;;14.30;;
4758;SDS011;2393;50.560;12.636;2024-03-02T07:32:49;36.53;;;17.07;;
4758;SDS011;2393;50.560;12.636;2024-03-02T07:35:19;32.03;;;13.33;;
4758;SDS011;2393;50.560;12.636;2024-03-02T07:37:48;23.57;;;10.40;;
4758;SDS011;2393;50.560;12.636;2024-03-02T07:40:18;29.20;;;14.93;;
4758;SDS011;2393;50.560;12.636;2024-03-02T07:42:46;45.00;;;18.80;;
4758;SDS011;2393;50.560;12.636;2024-03-02T07:45:15;24.67;;;12.37;;
4758;SDS011;2393;50.560;12.636;2024-03-02T07:47:45;34.57;;;12.47;;
4758;SDS011;2393;50.560;12.636;2024-03-02T07:50:14;22.27;;;10.57;;
4758;SDS011;2393;50.560;12.636;2024-03-02T07:52:42;32.90;;;11.97;;
4758;SDS011;2393;50.560;12.636;2024-03-02T07:55:12;25.03;;;10.77;;
4758;SDS011;2393;50.560;12.636;2024-03-02T07:57:40;25.43;;;10.60;;
4758;SDS011;2393;50.560;12.636;2024-03-02T08:00:10;22.17;;;10.00;;
4758;SDS011;2393;50.560;12.636;2024-03-02T08:02:41;23.07;;;9.67;;
4758;SDS011;2393;50.560;12.636;2024-03-02T08:05:11;19.60;;;9.43;;
4758;SDS011;2393;50.560;12.636;2024-03-02T08:07:39;21.30;;;10.03;;
4758;SDS011;2393;50.560;12.636;2024-03-02T08:10:08;14.50;;;7.40;;
4758;SDS011;2393;50.560;12.636;2024-03-02T08:12:37;20.03;;;7.90;;
4758;SDS011;2393;50.560;12.636;2024-03-02T08:15:06;15.70;;;7.83;;
4758;SDS011;2393;50.560;12.636;2024-03-02T08:17:34;25.90;;;9.67;;
4758;SDS011;2393;50.560;12.636;2024-03-02T08:20:05;15.67;;;9.10;;
4758;SDS011;2393;50.560;12.636;2024-03-02T08:22:36;18.87;;;7.17;;
4758;SDS011;2393;50.560;12.636;2024-03-02T08:25:05;9.70;;;4.93;;
4758;SDS011;2393;50.560;12.636;2024-03-02T08:27:34;9.70;;;5.00;;
4758;SDS011;2393;50.560;12.636;2024-03-02T08:30:03;8.30;;;4.67;;
4758;SDS011;2393;50.560;12.636;2024-03-02T08:32:33;11.67;;;5.93;;
4758;SDS011;2393;50.560;12.636;2024-03-02T08:35:02;10.17;;;5.03;;
4758;SDS011;2393;50.560;12.636;2024-03-02T08:37:31;10.00;;;4.87;;
4758;SDS011;2393;50.560;12.636;2024-03-02T08:40:01;15.80;;;4.70;;
4758;SDS011;2393;50.560;12.636;2024-03-02T08:42:36;5.67;;;3.90;;
4758;SDS011;2393;50.560;12.636;2024-03-02T08:45:04;7.37;;;4.30;;
4758;SDS011;2393;50.560;12.636;2024-03-02T08:47:34;6.40;;;4.30;;
4758;SDS011;2393;50.560;12.636;2024-03-02T08:50:03;7.07;;;3.73;;
4758;SDS011;2393;50.560;12.636;2024-03-02T08:52:33;6.63;;;3.97;;
4758;SDS011;2393;50.560;12.636;2024-03-02T08:55:03;7.10;;;4.40;;
4758;SDS011;2393;50.560;12.636;2024-03-02T08:57:32;10.00;;;5.33;;
4758;SDS011;2393;50.560;12.636;2024-03-02T09:00:00;12.07;;;6.03;;
4758;SDS011;2393;50.560;12.636;2024-03-02T09:02:29;9.53;;;4.90;;
4758;SDS011;2393;50.560;12.636;2024-03-02T09:04:58;7.10;;;4.87;;
4758;SDS011;2393;50.560;12.636;2024-03-02T09:07:26;22.40;;;9.87;;
4758;SDS011;2393;50.560;12.636;2024-03-02T09:09:55;15.90;;;7.40;;
4758;SDS011;2393;50.560;12.636;2024-03-02T09:12:25;14.37;;;6.40;;
4758;SDS011;2393;50.560;12.636;2024-03-02T09:14:53;13.40;;;6.30;;
4758;SDS011;2393;50.560;12.636;2024-03-02T09:17:22;7.53;;;5.07;;
4758;SDS011;2393;50.560;12.636;2024-03-02T09:19:50;8.03;;;4.80;;
4758;SDS011;2393;50.560;12.636;2024-03-02T09:22:19;12.60;;;6.27;;
4758;SDS011;2393;50.560;12.636;2024-03-02T09:24:48;25.10;;;13.37;;
4758;SDS011;2393;50.560;12.636;2024-03-02T09:27:16;19.53;;;10.33;;
4758;SDS011;2393;50.560;12.636;2024-03-02T09:29:46;17.70;;;7.13;;
4758;SDS011;2393;50.560;12.636;2024-03-02T09:32:14;12.23;;;6.33;;
4758;SDS011;2393;50.560;12.636;2024-03-02T09:34:42;22.03;;;11.03;;
4758;SDS011;2393;50.560;12.636;2024-03-02T09:37:11;16.40;;;9.97;;
4758;SDS011;2393;50.560;12.636;2024-03-02T09:39:39;14.13;;;7.20;;
4758;SDS011;2393;50.560;12.636;2024-03-02T09:42:11;12.80;;;6.80;;
4758;SDS011;2393;50.560;12.636;2024-03-02T09:44:40;17.13;;;7.07;;
4758;SDS011;2393;50.560;12.636;2024-03-02T09:47:11;10.10;;;5.10;;
4758;SDS011;2393;50.560;12.636;2024-03-02T09:49:39;10.53;;;5.33;;
4758;SDS011;2393;50.560;12.636;2024-03-02T09:52:08;10.77;;;7.07;;
4758;SDS011;2393;50.560;12.636;2024-03-02T09:54:37;11.07;;;4.53;;
4758;SDS011;2393;50.560;12.636;2024-03-02T09:57:06;7.07;;;4.03;;
4758;SDS011;2393;50.560;12.636;2024-03-02T09:59:34;4.90;;;3.47;;
4758;SDS011;2393;50.560;12.636;2024-03-02T10:02:03;10.03;;;3.50;;
4758;SDS011;2393;50.560;12.636;2024-03-02T10:04:35;5.77;;;4.30;;
4758;SDS011;2393;50.560;12.636;2024-03-02T10:07:14;7.70;;;3.20;;
4758;SDS011;2393;50.560;12.636;2024-03-02T10:09:43;4.60;;;3.67;;
4758;SDS011;2393;50.560;12.636;2024-03-02T10:12:13;5.47;;;2.70;;
4758;SDS011;2393;50.560;12.636;2024-03-02T10:14:43;4.20;;;2.73;;
4758;SDS011;2393;50.560;12.636;2024-03-02T10:17:12;3.50;;;2.67;;
4758;SDS011;2393;50.560;12.636;2024-03-02T10:19:43;5.40;;;3.20;;
4758;SDS011;2393;50.560;12.636;2024-03-02T10:22:12;7.00;;;3.00;;
4758;SDS011;2393;50.560;12.636;2024-03-02T10:24:41;7.07;;;3.57;;
4758;SDS011;2393;50.560;12.636;2024-03-02T10:27:14;3.97;;;2.73;;
4758;SDS011;2393;50.560;12.636;2024-03-02T10:29:45;5.87;;;3.60;;
4758;SDS011;2393;50.560;12.636;2024-03-02T10:32:14;9.70;;;3.43;;
4758;SDS011;2393;50.560;12.636;2024-03-02T10:34:45;5.83;;;2.80;;
4758;SDS011;2393;50.560;12.636;2024-03-02T10:37:15;6.60;;;3.40;;
4758;SDS011;2393;50.560;12.636;2024-03-02T10:39:45;4.07;;;3.03;;
4758;SDS011;2393;50.560;12.636;2024-03-02T10:42:15;6.40;;;2.73;;
4758;SDS011;2393;50.560;12.636;2024-03-02T10:44:45;4.87;;;3.10;;
4758;SDS011;2393;50.560;12.636;2024-03-02T10:47:14;7.47;;;3.90;;
4758;SDS011;2393;50.560;12.636;2024-03-02T10:49:47;6.43;;;3.00;;
4758;SDS011;2393;50.560;12.636;2024-03-02T10:52:18;10.50;;;3.40;;
4758;SDS011;2393;50.560;12.636;2024-03-02T10:54:50;4.37;;;3.13;;
4758;SDS011;2393;50.560;12.636;2024-03-02T10:57:19;6.03;;;3.37;;
4758;SDS011;2393;50.560;12.636;2024-03-02T10:59:52;5.00;;;3.03;;
4758;SDS011;2393;50.560;12.636;2024-03-02T11:02:24;6.53;;;2.67;;
4758;SDS011;2393;50.560;12.636;2024-03-02T11:04:56;6.33;;;2.83;;
4758;SDS011;2393;50.560;12.636;2024-03-02T11:07:34;6.53;;;3.40;;
4758;SDS011;2393;50.560;12.636;2024-03-02T11:10:04;7.50;;;4.03;;
4758;SDS011;2393;50.560;12.636;2024-03-02T11:12:36;6.23;;;3.37;;
4758;SDS011;2393;50.560;12.636;2024-03-02T11:15:09;3.17;;;2.73;;
4758;SDS011;2393;50.560;12.636;2024-03-02T11:17:38;3.97;;;2.90;;
4758;SDS011;2393;50.560;12.636;2024-03-02T11:20:10;3.37;;;2.47;;
4758;SDS011;2393;50.560;12.636;2024-03-02T11:22:39;3.30;;;3.00;;
4758;SDS011;2393;50.560;12.636;2024-03-02T11:25:11;6.70;;;2.23;;
4758;SDS011;2393;50.560;12.636;2024-03-02T11:28:01;2.90;;;2.70;;
4758;SDS011;2393;50.560;12.636;2024-03-02T11:30:50;3.53;;;2.57;;
4758;SDS011;2393;50.560;12.636;2024-03-02T11:33:26;6.83;;;3.67;;
4758;SDS011;2393;50.560;12.636;2024-03-02T11:35:59;4.23;;;2.70;;
4758;SDS011;2393;50.560;12.636;2024-03-02T11:38:32;3.20;;;2.37;;
4758;SDS011;2393;50.560;12.636;2024-03-02T11:41:01;5.77;;;2.90;;
4758;SDS011;2393;50.560;12.636;2024-03-02T11:43:30;4.33;;;1.90;;
4758;SDS011;2393;50.560;12.636;2024-03-02T11:46:00;2.83;;;2.40;;
4758;SDS011;2393;50.560;12.636;2024-03-02T11:48:34;13.97;;;2.60;;
4758;SDS011;2393;50.560;12.636;2024-03-02T11:51:05;2.87;;;2.50;;
4758;SDS011;2393;50.560;12.636;2024-03-02T11:53:34;3.07;;;2.40;;
4758;SDS011;2393;50.560;12.636;2024-03-02T11:56:06;3.00;;;2.70;;
4758;SDS011;2393;50.560;12.636;2024-03-02T11:58:39;3.00;;;2.20;;
4758;SDS011;2393;50.560;12.636;2024-03-02T12:01:10;2.50;;;1.70;;
4758;SDS011;2393;50.560;12.636;2024-03-02T12:03:40;6.43;;;3.17;;
4758;SDS011;2393;50.560;12.636;2024-03-02T12:06:10;1.77;;;1.67;;
4758;SDS011;2393;50.560;12.636;2024-03-02T12:08:40;2.27;;;1.60;;
4758;SDS011;2393;50.560;12.636;2024-03-02T12:11:12;2.60;;;1.47;;
4758;SDS011;2393;50.560;12.636;2024-03-02T12:13:51;2.40;;;1.80;;
4758;SDS011;2393;50.560;12.636;2024-03-02T12:16:24;3.17;;;1.90;;
4758;SDS011;2393;50.560;12.636;2024-03-02T12:18:53;3.90;;;1.30;;
4758;SDS011;2393;50.560;12.636;2024-03-02T12:21:23;3.67;;;3.00;;
4758;SDS011;2393;50.560;12.636;2024-03-02T12:23:52;2.57;;;1.90;;
4758;SDS011;2393;50.560;12.636;2024-03-02T12:26:20;9.53;;;2.10;;
4758;SDS011;2393;50.560;12.636;2024-03-02T12:28:50;2.00;;;1.80;;
4758;SDS011;2393;50.560;12.636;2024-03-02T12:31:19;7.47;;;3.17;;
4758;SDS011;2393;50.560;12.636;2024-03-02T12:33:48;6.07;;;4.57;;
4758;SDS011;2393;50.560;12.636;2024-03-02T12:36:17;7.30;;;4.53;;
4758;SDS011;2393;50.560;12.636;2024-03-02T12:38:48;8.90;;;6.07;;
4758;SDS011;2393;50.560;12.636;2024-03-02T12:41:21;16.07;;;5.10;;
4758;SDS011;2393;50.560;12.636;2024-03-02T12:43:50;5.93;;;4.33;;
4758;SDS011;2393;50.560;12.636;2024-03-02T12:46:19;10.90;;;5.70;;
4758;SDS011;2393;50.560;12.636;2024-03-02T12:48:47;16.20;;;9.80;;
4758;SDS011;2393;50.560;12.636;2024-03-02T12:51:16;6.93;;;5.10;;
4758;SDS011;2393;50.560;12.636;2024-03-02T12:53:44;8.07;;;5.60;;
4758;SDS011;2393;50.560;12.636;2024-03-02T12:56:14;6.10;;;4.30;;
4758;SDS011;2393;50.560;12.636;2024-03-02T12:58:42;6.67;;;3.70;;
4758;SDS011;2393;50.560;12.636;2024-03-02T13:01:11;6.90;;;4.10;;
4758;SDS011;2393;50.560;12.636;2024-03-02T13:03:47;3.60;;;3.30;;
4758;SDS011;2393;50.560;12.636;2024-03-02T13:06:17;3.60;;;3.30;;
4758;SDS011;2393;50.560;12.636;2024-03-02T13:08:46;5.67;;;3.43;;
4758;SDS011;2393;50.560;12.636;2024-03-02T13:11:16;5.03;;;3.20;;
4758;SDS011;2393;50.560;12.636;2024-03-02T13:13:46;6.83;;;3.77;;
4758;SDS011;2393;50.560;12.636;2024-03-02T13:16:14;5.67;;;3.10;;
4758;SDS011;2393;50.560;12.636;2024-03-02T13:18:45;4.00;;;2.77;;
4758;SDS011;2393;50.560;12.636;2024-03-02T13:21:13;2.60;;;2.17;;
4758;SDS011;2393;50.560;12.636;2024-03-02T13:23:42;3.30;;;2.83;;
4758;SDS011;2393;50.560;12.636;2024-03-02T13:26:10;14.53;;;3.33;;
4758;SDS011;2393;50.560;12.636;2024-03-02T13:28:40;3.77;;;2.80;;
4758;SDS011;2393;50.560;12.636;2024-03-02T13:31:09;3.23;;;2.90;;
4758;SDS011;2393;50.560;12.636;2024-03-02T13:33:38;3.10;;;2.20;;
4758;SDS011;2393;50.560;12.636;2024-03-02T13:36:07;6.60;;;2.67;;
4758;SDS011;2393;50.560;12.636;2024-03-02T13:38:36;4.40;;;2.20;;
4758;SDS011;2393;50.560;12.636;2024-03-02T13:41:05;3.50;;;2.40;;
4758;SDS011;2393;50.560;12.636;2024-03-02T13:43:33;3.50;;;3.20;;
4758;SDS011;2393;50.560;12.636;2024-03-02T13:46:05;3.37;;;2.33;;
4758;SDS011;2393;50.560;12.636;2024-03-02T13:48:34;6.47;;;2.30;;
4758;SDS011;2393;50.560;12.636;2024-03-02T13:51:04;2.10;;;1.90;;
4758;SDS011;2393;50.560;12.636;2024-03-02T13:53:33;3.87;;;1.90;;
4758;SDS011;2393;50.560;12.636;2024-03-02T13:56:03;4.77;;;2.23;;
4758;SDS011;2393;50.560;12.636;2024-03-02T13:58:32;3.90;;;2.67;;
4758;SDS011;2393;50.560;12.636;2024-03-02T14:01:01;3.10;;;2.33;;
4758;SDS011;2393;50.560;12.636;2024-03-02T14:03:33;3.13;;;2.83;;
4758;SDS011;2393;50.560;12.636;2024-03-02T14:06:03;3.07;;;2.70;;
4758;SDS011;2393;50.560;12.636;2024-03-02T14:08:33;2.63;;;2.43;;
4758;SDS011;2393;50.560;12.636;2024-03-02T14:11:03;4.30;;;2.80;;
4758;SDS011;2393;50.560;12.636;2024-03-02T14:13:32;3.20;;;2.47;;
4758;SDS011;2393;50.560;12.636;2024-03-02T14:16:00;3.57;;;2.63;;
4758;SDS011;2393;50.560;12.636;2024-03-02T14:22:14;4.73;;;2.07;;
4758;SDS011;2393;50.560;12.636;2024-03-02T14:24:44;2.60;;;2.23;;
4758;SDS011;2393;50.560;12.636;2024-03-02T14:27:12;3.43;;;2.20;;
4758;SDS011;2393;50.560;12.636;2024-03-02T14:29:58;1.90;;;1.80;;
4758;SDS011;2393;50.560;12.636;2024-03-02T14:32:27;1.87;;;1.73;;
4758;SDS011;2393;50.560;12.636;2024-03-02T14:34:55;3.53;;;2.67;;
4758;SDS011;2393;50.560;12.636;2024-03-02T14:37:25;2.50;;;1.60;;
4758;SDS011;2393;50.560;12.636;2024-03-02T14:39:54;2.90;;;1.90;;
4758;SDS011;2393;50.560;12.636;2024-03-02T14:42:23;3.90;;;2.10;;
4758;SDS011;2393;50.560;12.636;2024-03-02T14:44:51;1.40;;;1.30;;
4758;SDS011;2393;50.560;12.636;2024-03-02T14:47:20;2.13;;;1.67;;
4758;SDS011;2393;50.560;12.636;2024-03-02T14:49:48;2.23;;;2.00;;
4758;SDS011;2393;50.560;12.636;2024-03-02T14:52:17;2.50;;;2.03;;
4758;SDS011;2393;50.560;12.636;2024-03-02T14:54:47;2.00;;;1.77;;
4758;SDS011;2393;50.560;12.636;2024-03-02T14:57:15;3.03;;;1.80;;
4758;SDS011;2393;50.560;12.636;2024-03-02T14:59:44;2.10;;;1.77;;
4758;SDS011;2393;50.560;12.636;2024-03-02T15:02:12;3.13;;;1.63;;
4758;SDS011;2393;50.560;12.636;2024-03-02T15:04:41;3.23;;;1.97;;
4758;SDS011;2393;50.560;12.636;2024-03-02T15:07:11;1.80;;;1.60;;
4758;SDS011;2393;50.560;12.636;2024-03-02T15:09:39;3.67;;;3.37;;